Time;durP1;ratioP1;P1;durP2;ratioP2;P2;SDS_P1;SDS_P2;PMS_P1;PMS_P2;Temp;Humidity;BMP_temperature;BMP_pressure;BME280_temperature;BME280_humidity;BME280_pressure;Samples;Min_cycle;Max_cycle;Signal;HPM_P1;HPM_P2
2022/05/05 00:00:51;;;;;;;10.93;4.90;;;7.90;99.90;;;;;;5016205;28;20373;-72
2022/05/05 00:03:16;;;;;;;10.10;5.03;;;7.90;99.90;;;;;;5032576;28;20044;-72
2022/05/05 00:05:42;;;;;;;9.68;4.60;;;7.90;99.90;;;;;;5000069;28;20412;-71
2022/05/05 00:08:09;;;;;;;7.00;4.20;;;7.80;99.90;;;;;;5032438;28;20046;-71
2022/05/05 00:16:04;;;;;;;14.73;5.72;;;7.80;99.90;;;;;;5032515;28;20406;-70
2022/05/05 00:18:30;;;;;;;14.60;5.70;;;7.80;99.90;;;;;;5013853;28;20087;-71
2022/05/05 00:20:55;;;;;;;13.85;6.50;;;7.80;99.90;;;;;;5013511;28;21223;-71
2022/05/05 00:23:21;;;;;;;9.85;5.35;;;7.80;99.90;;;;;;5032108;28;20373;-71
2022/05/05 00:25:46;;;;;;;13.10;5.32;;;7.80;99.90;;;;;;5032070;28;20451;-71
2022/05/05 00:28:12;;;;;;;14.55;5.47;;;7.80;99.90;;;;;;5032183;28;20045;-70
2022/05/05 00:30:38;;;;;;;12.05;5.57;;;7.80;99.90;;;;;;5031597;28;20412;-71
2022/05/05 00:33:03;;;;;;;10.80;5.78;;;7.70;99.90;;;;;;4999263;28;20045;-72
2022/05/05 00:35:29;;;;;;;8.95;4.93;;;7.70;99.90;;;;;;5031941;28;20049;-71
2022/05/05 00:37:55;;;;;;;12.00;5.03;;;7.70;99.90;;;;;;5031987;28;20068;-71
2022/05/05 00:40:20;;;;;;;8.48;5.38;;;7.70;99.90;;;;;;5031574;28;20041;-71
2022/05/05 00:42:46;;;;;;;9.90;5.10;;;7.70;99.90;;;;;;5032246;28;20063;-71
2022/05/05 00:45:12;;;;;;;14.05;5.20;;;7.70;99.90;;;;;;5013845;28;20045;-71
2022/05/05 00:47:37;;;;;;;9.70;5.07;;;7.70;99.90;;;;;;5015381;28;20107;-71
2022/05/05 00:50:05;;;;;;;10.15;5.45;;;7.70;99.90;;;;;;5014784;28;20073;-71
2022/05/05 00:52:31;;;;;;;9.10;5.10;;;7.70;99.90;;;;;;5015243;28;20041;-70
2022/05/05 00:54:57;;;;;;;8.48;5.05;;;7.60;99.90;;;;;;5015210;28;20112;-70
2022/05/05 00:57:23;;;;;;;10.50;5.43;;;7.60;99.90;;;;;;4996747;28;20042;-70
2022/05/05 00:59:50;;;;;;;10.73;5.70;;;7.60;99.90;;;;;;4994960;28;20034;-70
2022/05/05 01:02:16;;;;;;;14.95;5.40;;;7.60;99.90;;;;;;4995429;28;20128;-71
2022/05/05 01:04:43;;;;;;;11.38;5.70;;;7.60;99.90;;;;;;4995504;28;20496;-71
2022/05/05 01:07:09;;;;;;;12.05;5.68;;;7.60;99.90;;;;;;4995196;28;20088;-71
2022/05/05 01:09:35;;;;;;;9.60;5.88;;;7.60;99.90;;;;;;4994924;28;20071;-70
2022/05/05 01:12:02;;;;;;;12.73;5.68;;;7.60;99.90;;;;;;4995152;28;20041;-71
2022/05/05 01:14:29;;;;;;;11.38;6.10;;;7.60;99.90;;;;;;4995211;28;20125;-71
2022/05/05 01:16:55;;;;;;;7.28;5.20;;;7.60;99.90;;;;;;4995081;28;20041;-71
2022/05/05 01:19:20;;;;;;;10.80;5.22;;;7.60;99.90;;;;;;4995069;28;20045;-71
2022/05/05 01:21:54;;;;;;;10.18;5.10;;;7.60;99.90;;;;;;4994820;28;20038;-71
2022/05/05 01:28:10;;;;;;;11.50;6.05;;;7.50;99.90;;;;;;4995167;28;20042;-71
2022/05/05 01:29:51;;;;;;;12.40;6.00;;;7.50;99.90;;;;;;5008191;28;20053;-71
2022/05/05 01:32:17;;;;;;;15.23;6.65;;;7.50;99.90;;;;;;5014696;28;20037;-71
2022/05/05 01:34:43;;;;;;;10.52;6.65;;;7.50;99.90;;;;;;5014551;28;20045;-71
2022/05/05 01:37:09;;;;;;;13.98;6.72;;;7.50;99.90;;;;;;5014472;28;20041;-71
2022/05/05 01:39:35;;;;;;;17.27;6.80;;;7.40;99.90;;;;;;5014110;28;20044;-71
2022/05/05 01:42:00;;;;;;;13.93;6.28;;;7.40;99.90;;;;;;5014143;28;20037;-71
2022/05/05 01:44:26;;;;;;;14.30;6.80;;;7.40;99.90;;;;;;5014079;28;20048;-71
2022/05/05 01:46:55;;;;;;;11.50;6.20;;;7.40;99.90;;;;;;5014340;28;20435;-71
2022/05/05 01:49:20;;;;;;;15.20;6.35;;;7.40;99.90;;;;;;5011836;28;20099;-70
2022/05/05 01:51:46;;;;;;;11.88;6.90;;;7.40;99.90;;;;;;5012299;28;20045;-71
2022/05/05 01:54:12;;;;;;;13.93;6.50;;;7.40;99.90;;;;;;4996100;28;20045;-70
2022/05/05 01:56:37;;;;;;;11.63;6.50;;;7.40;99.90;;;;;;5012233;28;20080;-70
2022/05/05 01:59:03;;;;;;;11.68;6.75;;;7.40;99.90;;;;;;5012248;28;20047;-70
2022/05/05 02:01:29;;;;;;;15.60;7.00;;;7.30;99.90;;;;;;5012044;28;20088;-71
2022/05/05 02:03:54;;;;;;;17.17;7.15;;;7.30;99.90;;;;;;4996238;28;20123;-71
2022/05/05 02:06:20;;;;;;;12.40;6.60;;;7.30;99.90;;;;;;5012185;28;20038;-71
2022/05/05 02:08:46;;;;;;;13.30;7.07;;;7.20;99.90;;;;;;5012946;28;20037;-71
2022/05/05 02:11:11;;;;;;;14.40;6.95;;;7.20;99.90;;;;;;5013750;28;20075;-71
2022/05/05 02:13:37;;;;;;;14.38;7.10;;;7.20;99.90;;;;;;5013474;28;20091;-70
2022/05/05 02:16:03;;;;;;;13.10;6.85;;;7.20;99.90;;;;;;5028101;28;20049;-70
2022/05/05 02:18:29;;;;;;;12.70;6.90;;;7.20;99.90;;;;;;5014035;28;20069;-71
2022/05/05 02:20:55;;;;;;;11.55;6.95;;;7.10;99.90;;;;;;5031407;28;20068;-70
2022/05/05 02:23:20;;;;;;;15.27;7.63;;;7.20;99.90;;;;;;5014244;28;20037;-70
2022/05/05 02:25:46;;;;;;;16.15;7.10;;;7.10;99.90;;;;;;5030478;28;20073;-70
2022/05/05 02:28:12;;;;;;;12.20;7.22;;;7.00;99.90;;;;;;4997914;28;20041;-71
2022/05/05 02:30:37;;;;;;;14.85;7.40;;;7.10;99.90;;;;;;5030278;28;20081;-71
2022/05/05 02:33:03;;;;;;;12.98;7.00;;;7.10;99.90;;;;;;5030539;28;20045;-71
2022/05/05 02:35:29;;;;;;;12.80;7.05;;;7.10;99.90;;;;;;4997537;28;20128;-71
2022/05/05 02:40:39;;;;;;;15.60;7.32;;;7.10;99.90;;;;;;5031101;28;20041;-71
2022/05/05 02:43:06;;;;;;;18.83;7.80;;;7.10;99.90;;;;;;5014353;28;20033;-71
2022/05/05 02:45:32;;;;;;;14.15;7.63;;;7.10;99.90;;;;;;5013045;28;20044;-72
2022/05/05 02:47:58;;;;;;;13.25;7.53;;;7.10;99.90;;;;;;5011005;28;20038;-72
2022/05/05 02:50:24;;;;;;;13.48;7.50;;;7.10;99.90;;;;;;5013480;28;20067;-71
2022/05/05 02:52:50;;;;;;;15.02;8.23;;;7.00;99.90;;;;;;5013520;28;20137;-72
2022/05/05 02:55:15;;;;;;;17.63;7.93;;;7.10;99.90;;;;;;5032862;28;20046;-72
2022/05/05 02:57:41;;;;;;;11.30;7.70;;;7.00;99.90;;;;;;5033935;28;20041;-73
2022/05/05 03:00:11;;;;;;;13.10;7.95;;;7.00;99.90;;;;;;5016213;28;20037;-72
2022/05/05 03:02:37;;;;;;;12.30;7.75;;;7.10;99.90;;;;;;5013156;28;20115;-72
2022/05/05 03:05:03;;;;;;;12.43;8.02;;;7.10;99.90;;;;;;5017475;28;20049;-72
2022/05/05 03:07:29;;;;;;;11.13;7.50;;;7.10;99.90;;;;;;5015187;28;20037;-72
2022/05/05 03:09:55;;;;;;;12.68;7.75;;;7.10;99.90;;;;;;5015221;28;20041;-72
2022/05/05 03:12:21;;;;;;;17.20;8.20;;;7.00;99.90;;;;;;5017727;28;20041;-72
2022/05/05 03:14:47;;;;;;;15.07;8.30;;;7.00;99.90;;;;;;5016193;28;20103;-72
2022/05/05 03:17:14;;;;;;;10.75;8.05;;;7.00;99.90;;;;;;5016241;28;20040;-71
2022/05/05 03:19:40;;;;;;;13.25;8.52;;;7.00;99.90;;;;;;5015396;28;20045;-71
2022/05/05 03:22:06;;;;;;;12.00;8.50;;;7.00;99.90;;;;;;5016640;28;20033;-71
2022/05/05 03:24:32;;;;;;;18.40;8.98;;;7.00;99.90;;;;;;5033601;28;20052;-71
2022/05/05 03:26:59;;;;;;;13.02;8.48;;;7.00;99.90;;;;;;5033437;28;20099;-71
2022/05/05 03:29:26;;;;;;;18.67;8.73;;;7.00;99.90;;;;;;5016698;28;20519;-71
2022/05/05 03:31:51;;;;;;;14.05;8.35;;;7.00;99.90;;;;;;5016737;28;20041;-71
2022/05/05 03:34:17;;;;;;;13.35;8.38;;;7.00;99.90;;;;;;5033370;28;20037;-71
2022/05/05 03:36:43;;;;;;;14.77;8.38;;;7.00;99.90;;;;;;5033019;28;20033;-71
2022/05/05 03:39:08;;;;;;;11.68;8.57;;;6.90;99.90;;;;;;5033317;28;20692;-71
2022/05/05 03:41:34;;;;;;;12.98;9.25;;;6.90;99.90;;;;;;5032792;28;20044;-71
2022/05/05 03:44:00;;;;;;;15.32;8.88;;;6.90;99.90;;;;;;5033319;28;20134;-71
2022/05/05 03:46:25;;;;;;;12.65;8.65;;;6.90;99.90;;;;;;5033378;28;20045;-71
2022/05/05 03:48:52;;;;;;;13.77;9.10;;;6.90;99.90;;;;;;5016735;28;20129;-71
2022/05/05 03:51:18;;;;;;;15.07;9.23;;;6.90;99.90;;;;;;5016056;28;20045;-71
2022/05/05 03:53:43;;;;;;;15.57;9.63;;;6.80;99.90;;;;;;5016674;28;20052;-71
2022/05/05 03:56:09;;;;;;;16.58;10.27;;;6.80;99.90;;;;;;5032686;28;20045;-71
2022/05/05 03:58:35;;;;;;;15.10;9.30;;;6.80;99.90;;;;;;5016364;28;20099;-71
2022/05/05 04:01:01;;;;;;;10.48;8.25;;;6.70;99.90;;;;;;5015957;28;20069;-71
2022/05/05 04:03:33;;;;;;;13.20;9.10;;;6.70;99.90;;;;;;5032624;28;20041;-71
2022/05/05 04:06:06;;;;;;;20.25;9.90;;;6.70;99.90;;;;;;5015489;28;20096;-71
2022/05/05 04:08:33;;;;;;;15.50;9.93;;;6.70;99.90;;;;;;5032458;28;20091;-72
2022/05/05 04:10:59;;;;;;;15.35;9.43;;;6.70;99.90;;;;;;5015766;28;20049;-72
2022/05/05 04:13:25;;;;;;;14.23;9.13;;;6.70;99.90;;;;;;5032432;28;20045;-71
2022/05/05 04:15:51;;;;;;;17.23;9.98;;;6.70;99.90;;;;;;5015922;28;20100;-71
2022/05/05 04:18:17;;;;;;;15.88;10.40;;;6.70;99.90;;;;;;5016057;28;20073;-71
2022/05/05 04:20:43;;;;;;;12.38;9.05;;;6.70;99.90;;;;;;5015463;28;20075;-71
2022/05/05 04:23:09;;;;;;;16.73;10.73;;;6.70;99.90;;;;;;5032544;28;20072;-71
2022/05/05 04:25:40;;;;;;;16.58;9.80;;;6.70;99.90;;;;;;4999362;28;20071;-71
2022/05/05 04:28:07;;;;;;;15.23;8.60;;;6.70;99.90;;;;;;5016059;28;20618;-71
2022/05/05 04:30:33;;;;;;;11.93;9.02;;;6.70;99.90;;;;;;5015350;28;20049;-71
2022/05/05 04:32:59;;;;;;;12.57;8.50;;;6.70;99.90;;;;;;5032026;28;20049;-71
2022/05/05 04:35:24;;;;;;;16.15;8.40;;;6.70;99.90;;;;;;5015533;28;20048;-71
2022/05/05 04:37:50;;;;;;;16.33;8.77;;;6.70;99.90;;;;;;5031933;28;20110;-71
2022/05/05 04:40:16;;;;;;;17.27;10.38;;;6.70;99.90;;;;;;5032927;28;20038;-71
2022/05/05 04:42:41;;;;;;;12.07;7.45;;;6.70;99.90;;;;;;5015698;28;20102;-71
2022/05/05 04:45:07;;;;;;;13.63;10.15;;;6.70;99.90;;;;;;5031922;28;20503;-71
2022/05/05 04:47:33;;;;;;;15.65;9.68;;;6.70;99.90;;;;;;5015315;28;20037;-71
2022/05/05 04:49:59;;;;;;;16.73;9.10;;;6.70;99.90;;;;;;5031495;28;20045;-72
2022/05/05 04:52:25;;;;;;;10.18;8.00;;;6.70;99.90;;;;;;5015190;28;20052;-71
2022/05/05 04:54:53;;;;;;;18.48;10.00;;;6.60;99.90;;;;;;5031706;28;20411;-71
2022/05/05 04:57:19;;;;;;;16.05;9.65;;;6.60;99.90;;;;;;5014999;28;20120;-72
2022/05/05 04:59:45;;;;;;;17.23;9.85;;;6.60;99.90;;;;;;5032429;28;20472;-72
2022/05/05 05:02:11;;;;;;;15.63;9.90;;;6.60;99.90;;;;;;5015099;28;20045;-71
2022/05/05 05:04:36;;;;;;;16.90;10.32;;;6.60;99.90;;;;;;5032876;28;20041;-71
2022/05/05 05:07:02;;;;;;;16.33;10.43;;;6.60;99.90;;;;;;5014921;28;20175;-71
2022/05/05 05:09:28;;;;;;;15.40;10.15;;;6.60;99.90;;;;;;5014733;28;20044;-71
2022/05/05 05:11:54;;;;;;;13.68;10.32;;;6.60;99.90;;;;;;4998799;28;20442;-71
2022/05/05 05:14:20;;;;;;;13.75;10.23;;;6.70;99.90;;;;;;5014836;28;20049;-72
2022/05/05 05:16:46;;;;;;;9.23;7.60;;;6.70;99.90;;;;;;5014754;28;20414;-72
2022/05/05 05:19:11;;;;;;;14.27;8.60;;;6.70;99.90;;;;;;5030832;28;20124;-72
2022/05/05 05:21:37;;;;;;;14.18;9.63;;;6.70;99.90;;;;;;5030824;28;20647;-72
2022/05/05 05:24:03;;;;;;;15.18;10.50;;;6.80;99.90;;;;;;5031547;28;20033;-71
2022/05/05 05:26:29;;;;;;;14.63;10.60;;;6.90;99.90;;;;;;5014699;28;20056;-72
2022/05/05 05:28:55;;;;;;;17.33;11.52;;;7.00;99.90;;;;;;5014984;28;20037;-72
2022/05/05 05:31:22;;;;;;;15.52;11.57;;;7.00;99.90;;;;;;4998200;28;20038;-72
2022/05/05 05:33:50;;;;;;;14.45;11.20;;;7.10;99.90;;;;;;5014537;28;20061;-72
2022/05/05 05:36:16;;;;;;;16.55;12.18;;;7.20;99.90;;;;;;5014429;28;20037;-72
2022/05/05 05:38:42;;;;;;;14.25;8.65;;;7.30;99.90;;;;;;5014595;28;20156;-72
2022/05/05 05:41:10;;;;;;;13.68;9.23;;;7.40;99.90;;;;;;5030829;28;20518;-71
2022/05/05 05:43:36;;;;;;;15.70;10.20;;;7.40;99.90;;;;;;5014472;28;20498;-71
2022/05/05 05:46:02;;;;;;;17.27;11.80;;;7.50;99.90;;;;;;4998077;28;20077;-71
2022/05/05 05:48:27;;;;;;;24.50;12.38;;;7.50;99.90;;;;;;5014591;28;20068;-71
2022/05/05 05:50:53;;;;;;;19.70;12.00;;;7.60;99.90;;;;;;4995578;28;20129;-71
2022/05/05 05:53:18;;;;;;;19.13;11.32;;;7.70;99.90;;;;;;5013649;28;20053;-72
2022/05/05 05:55:44;;;;;;;19.67;12.32;;;7.70;99.90;;;;;;5012215;28;20091;-72
2022/05/05 05:58:10;;;;;;;18.30;11.75;;;7.80;99.90;;;;;;5012071;28;20123;-71
2022/05/05 06:00:36;;;;;;;17.83;12.18;;;7.80;99.90;;;;;;5011981;28;20476;-72
2022/05/05 06:05:46;;;;;;;19.50;11.38;;;7.90;99.90;;;;;;5012283;28;20554;-72
2022/05/05 06:08:12;;;;;;;19.27;11.43;;;8.00;99.90;;;;;;5012309;28;20128;-72
2022/05/05 06:10:37;;;;;;;17.38;10.98;;;8.10;99.90;;;;;;4997206;28;20051;-72
2022/05/05 06:13:03;;;;;;;17.00;11.80;;;8.10;99.90;;;;;;5014041;28;20037;-72
2022/05/05 06:15:29;;;;;;;19.67;11.85;;;8.20;99.90;;;;;;5013876;28;20051;-72
2022/05/05 06:17:56;;;;;;;17.15;11.18;;;8.20;99.90;;;;;;5013967;28;20042;-72
2022/05/05 06:20:22;;;;;;;16.67;11.60;;;8.30;99.90;;;;;;5013798;28;20041;-72
2022/05/05 06:22:50;;;;;;;23.95;12.77;;;8.40;99.90;;;;;;5014017;28;20059;-72
2022/05/05 06:25:15;;;;;;;20.95;12.93;;;8.40;99.90;;;;;;5013778;28;20048;-72
2022/05/05 06:27:41;;;;;;;18.73;13.48;;;8.50;99.90;;;;;;5013954;28;20049;-72
2022/05/05 06:30:10;;;;;;;22.92;12.45;;;8.70;99.90;;;;;;5016378;28;20128;-72
2022/05/05 06:32:36;;;;;;;20.92;13.43;;;8.80;99.90;;;;;;5017785;28;20041;-72
2022/05/05 06:35:02;;;;;;;16.17;12.02;;;8.90;99.90;;;;;;5001366;28;20071;-72
2022/05/05 06:37:27;;;;;;;21.85;13.45;;;9.00;99.90;;;;;;5017880;28;20045;-72
2022/05/05 06:39:53;;;;;;;17.85;12.98;;;9.20;99.90;;;;;;5035078;28;20037;-72
2022/05/05 06:42:19;;;;;;;17.08;12.43;;;9.30;99.90;;;;;;5017906;28;20133;-72
2022/05/05 06:44:45;;;;;;;22.05;12.60;;;9.50;99.90;;;;;;5035359;28;20045;-72
2022/05/05 06:47:11;;;;;;;21.20;12.10;;;9.50;99.90;;;;;;5017860;28;20107;-72
2022/05/05 06:49:37;;;;;;;17.70;11.85;;;9.70;99.90;;;;;;5017059;28;20099;-72
2022/05/05 06:52:03;;;;;;;19.92;12.23;;;9.90;99.90;;;;;;5001593;28;20049;-71
2022/05/05 06:54:29;;;;;;;18.55;11.93;;;10.00;99.90;;;;;;5017377;28;20041;-71
2022/05/05 06:56:55;;;;;;;23.10;11.85;;;10.10;99.90;;;;;;5017605;28;20071;-71
2022/05/05 06:59:21;;;;;;;17.38;11.93;;;10.30;99.90;;;;;;5017459;28;20056;-71
2022/05/05 07:01:53;;;;;;;19.67;11.68;;;10.50;99.90;;;;;;5017257;28;20037;-71
2022/05/05 07:07:15;;;;;;;20.15;11.98;;;10.80;99.90;;;;;;5017438;28;20476;-71
2022/05/05 07:12:30;;;;;;;18.50;10.43;;;11.10;99.90;;;;;;5017159;28;20049;-72
2022/05/05 07:14:56;;;;;;;15.40;9.98;;;11.30;99.90;;;;;;5017225;28;20195;-72
2022/05/05 07:17:23;;;;;;;14.63;8.95;;;11.40;99.90;;;;;;5017050;28;20531;-72
2022/05/05 07:19:50;;;;;;;14.40;9.82;;;11.60;99.90;;;;;;5000651;28;20433;-71
2022/05/05 07:22:16;;;;;;;19.65;9.50;;;11.80;99.90;;;;;;5017313;28;20076;-73
2022/05/05 07:24:42;;;;;;;16.40;8.10;;;12.00;99.90;;;;;;5016874;28;20076;-72
2022/05/05 07:27:08;;;;;;;18.35;9.43;;;12.20;99.90;;;;;;5016989;28;20126;-71
2022/05/05 07:29:34;;;;;;;17.20;8.20;;;12.40;99.90;;;;;;5016652;28;20050;-71
2022/05/05 07:32:00;;;;;;;17.80;8.18;;;12.70;99.90;;;;;;5017051;28;20056;-71
2022/05/05 07:34:26;;;;;;;12.45;5.93;;;12.80;99.90;;;;;;5016863;28;20488;-71
2022/05/05 07:36:51;;;;;;;13.43;7.53;;;12.90;99.90;;;;;;5016928;28;20048;-71
2022/05/05 07:39:17;;;;;;;13.85;7.47;;;13.00;99.90;;;;;;5016624;28;20041;-71
2022/05/05 07:41:43;;;;;;;13.00;6.50;;;13.20;99.90;;;;;;5015553;28;20073;-71
2022/05/05 07:44:10;;;;;;;14.02;5.70;;;13.30;99.90;;;;;;5016906;28;20419;-72
2022/05/05 07:46:36;;;;;;;13.93;5.55;;;13.40;99.90;;;;;;5016496;28;20048;-72
2022/05/05 07:49:04;;;;;;;14.05;6.18;;;13.60;99.90;;;;;;4999134;28;20039;-71
2022/05/05 07:51:30;;;;;;;16.83;6.43;;;13.80;99.90;;;;;;5016338;28;20033;-72
2022/05/05 07:54:38;;;;;;;16.02;6.32;;;13.90;99.90;;;;;;5016718;28;20045;-72
2022/05/05 07:56:45;;;;;;;15.00;6.47;;;14.10;99.90;;;;;;5008420;28;20107;-71
2022/05/05 07:59:11;;;;;;;19.13;6.72;;;14.10;99.60;;;;;;5016331;28;20546;-72
2022/05/05 08:01:37;;;;;;;15.48;6.20;;;14.30;99.90;;;;;;5015783;28;20120;-72
2022/05/05 08:04:04;;;;;;;11.57;6.25;;;14.40;99.90;;;;;;5015843;28;20052;-72
2022/05/05 08:06:33;;;;;;;16.02;6.80;;;14.60;99.90;;;;;;5016089;28;20045;-72
2022/05/05 08:08:59;;;;;;;12.32;6.38;;;14.70;99.90;;;;;;5016307;28;20045;-72
2022/05/05 08:11:24;;;;;;;13.68;6.10;;;14.70;99.90;;;;;;5015757;28;20052;-71
2022/05/05 08:13:50;;;;;;;13.48;5.97;;;14.90;98.50;;;;;;4999663;28;20049;-72
2022/05/05 08:16:19;;;;;;;16.30;6.82;;;15.00;96.40;;;;;;5016078;28;20072;-72
2022/05/05 08:18:45;;;;;;;15.65;6.13;;;15.00;99.50;;;;;;5015773;28;20041;-72
2022/05/05 08:21:10;;;;;;;13.07;6.10;;;15.20;95.80;;;;;;5015640;28;20488;-72
2022/05/05 08:23:38;;;;;;;11.90;6.13;;;15.30;95.60;;;;;;5015750;28;20041;-72
2022/05/05 08:28:49;;;;;;;10.73;5.75;;;15.30;92.80;;;;;;5015883;28;20054;-72
2022/05/05 08:31:15;;;;;;;10.48;6.07;;;15.40;91.40;;;;;;5015716;28;20400;-72
2022/05/05 08:33:41;;;;;;;13.10;6.18;;;15.60;91.20;;;;;;5015584;28;20407;-72
2022/05/05 08:36:07;;;;;;;9.45;5.90;;;15.70;93.30;;;;;;5015517;28;20037;-72
2022/05/05 08:38:36;;;;;;;15.88;6.20;;;15.80;90.20;;;;;;5015725;28;20404;-72
2022/05/05 08:41:02;;;;;;;14.65;5.97;;;15.80;91.10;;;;;;5015543;28;20383;-72
2022/05/05 08:43:29;;;;;;;15.52;6.00;;;15.90;90.10;;;;;;5015737;28;20369;-72
2022/05/05 08:45:57;;;;;;;12.35;6.10;;;15.90;84.30;;;;;;4999015;28;20044;-72
2022/05/05 08:48:23;;;;;;;15.07;6.22;;;15.90;81.80;;;;;;5015390;28;20041;-72
2022/05/05 08:50:56;;;;;;;13.63;5.47;;;15.80;80.00;;;;;;5011446;28;20049;-72
2022/05/05 08:53:29;;;;;;;10.15;5.90;;;16.00;82.20;;;;;;5003947;28;20389;-72
2022/05/05 08:55:54;;;;;;;13.07;6.18;;;16.20;89.40;;;;;;4995732;28;20473;-72
2022/05/05 08:58:21;;;;;;;13.77;6.47;;;16.30;81.30;;;;;;4995719;28;20046;-72
2022/05/05 09:00:50;;;;;;;13.25;5.35;;;16.40;75.70;;;;;;4995051;28;20511;-72
2022/05/05 09:03:16;;;;;;;12.10;6.03;;;16.50;74.80;;;;;;5013049;28;20492;-72
2022/05/05 09:05:42;;;;;;;13.68;5.57;;;16.60;76.20;;;;;;4995393;28;20124;-72
2022/05/05 09:08:10;;;;;;;12.38;6.07;;;16.60;74.90;;;;;;4995400;28;20034;-72
2022/05/05 09:10:44;;;;;;;12.43;6.05;;;16.80;73.70;;;;;;4995066;28;20034;-73
2022/05/05 09:13:10;;;;;;;10.20;5.95;;;16.90;72.50;;;;;;4993948;28;20104;-72
2022/05/05 09:15:40;;;;;;;13.10;6.15;;;16.80;72.10;;;;;;4994156;28;20481;-73
2022/05/05 09:18:25;;;;;;;12.68;6.22;;;16.90;70.90;;;;;;4994490;28;20080;-72
2022/05/05 09:20:51;;;;;;;9.40;5.70;;;16.90;71.50;;;;;;4993936;28;20034;-72
2022/05/05 09:24:34;;;;;;;11.25;5.82;;;17.00;74.90;;;;;;4994345;28;20400;-73
2022/05/05 09:26:25;;;;;;;8.57;5.60;;;17.20;71.80;;;;;;4993585;28;20046;-73
2022/05/05 09:28:51;;;;;;;12.40;5.78;;;17.50;70.00;;;;;;4993932;28;20041;-72
2022/05/05 09:31:17;;;;;;;11.93;5.50;;;17.60;68.20;;;;;;4994309;28;20092;-73
2022/05/05 09:33:44;;;;;;;13.65;6.53;;;17.80;68.20;;;;;;4994375;28;20073;-73
2022/05/05 09:36:28;;;;;;;14.02;6.15;;;17.60;65.20;;;;;;4993838;28;20124;-72
2022/05/05 09:39:04;;;;;;;10.77;5.43;;;17.60;65.30;;;;;;4993268;28;20046;-73
2022/05/05 09:41:32;;;;;;;19.60;5.60;;;17.60;65.10;;;;;;4994432;28;20173;-73
2022/05/05 09:44:13;;;;;;;9.77;6.15;;;17.80;70.70;;;;;;4993738;28;20034;-73
2022/05/05 09:46:40;;;;;;;11.00;5.90;;;18.10;65.50;;;;;;4994536;28;20048;-72
2022/05/05 09:49:07;;;;;;;10.05;6.13;;;17.80;64.00;;;;;;4978314;28;20050;-73
2022/05/05 09:51:38;;;;;;;9.20;5.72;;;17.90;64.90;;;;;;5004555;28;20538;-72
2022/05/05 09:59:41;;;;;;;7.55;5.40;;;18.20;66.40;;;;;;5011274;28;20067;-72
2022/05/05 10:05:17;;;;;;;8.88;5.32;;;18.70;61.80;;;;;;5010468;28;20045;-73
2022/05/05 10:07:45;;;;;;;7.75;5.90;;;18.70;61.80;;;;;;5029607;28;20038;-72
2022/05/05 10:10:14;;;;;;;8.00;5.30;;;18.90;60.50;;;;;;5012183;28;20123;-73
2022/05/05 10:12:40;;;;;;;10.45;5.40;;;19.20;60.50;;;;;;5013899;28;20041;-72
2022/05/05 10:15:06;;;;;;;8.68;5.13;;;19.10;59.50;;;;;;5013904;28;20124;-72
2022/05/05 10:17:35;;;;;;;9.23;5.15;;;19.10;61.20;;;;;;5013190;28;20048;-72
2022/05/05 10:20:03;;;;;;;11.57;5.43;;;19.20;60.20;;;;;;5013633;28;20037;-72
2022/05/05 10:22:53;;;;;;;7.72;5.90;;;19.40;60.40;;;;;;5014037;28;20074;-73
2022/05/05 10:25:26;;;;;;;6.18;5.18;;;19.20;59.60;;;;;;5014120;28;20041;-73
2022/05/05 10:27:52;;;;;;;9.35;6.10;;;19.40;59.90;;;;;;5013925;28;20045;-74
2022/05/05 10:30:34;;;;;;;11.60;5.82;;;19.60;58.10;;;;;;5013548;28;20049;-74
2022/05/05 10:33:05;;;;;;;12.13;6.15;;;19.70;59.60;;;;;;5013917;28;20045;-74
2022/05/05 10:35:47;;;;;;;10.90;6.13;;;19.90;58.60;;;;;;4997588;28;20393;-73
2022/05/05 10:38:42;;;;;;;11.35;5.60;;;20.00;57.30;;;;;;5013958;28;20042;-73
2022/05/05 10:41:39;;;;;;;9.93;5.65;;;19.90;56.70;;;;;;5013897;28;20087;-72
2022/05/05 10:44:16;;;;;;;8.38;5.88;;;19.90;57.50;;;;;;5031458;28;20046;-72
2022/05/05 10:46:54;;;;;;;9.27;5.40;;;19.50;57.80;;;;;;4997668;28;20124;-72
2022/05/05 10:49:32;;;;;;;10.07;5.78;;;19.60;55.80;;;;;;5013718;28;20106;-72
2022/05/05 10:52:16;;;;;;;9.52;6.07;;;19.80;57.40;;;;;;5013915;28;20124;-72
2022/05/05 10:54:46;;;;;;;11.70;6.10;;;20.00;56.40;;;;;;5013880;28;20072;-72
2022/05/05 10:57:27;;;;;;;10.25;5.82;;;20.20;58.40;;;;;;4997513;28;20419;-72
2022/05/05 11:00:18;;;;;;;9.00;5.68;;;20.60;55.30;;;;;;5013460;28;20037;-72
2022/05/05 11:03:02;;;;;;;7.50;5.70;;;20.80;55.30;;;;;;5013739;28;20117;-72
2022/05/05 11:05:32;;;;;;;9.18;5.70;;;21.00;53.80;;;;;;5013871;28;20045;-72
2022/05/05 11:08:15;;;;;;;6.47;5.07;;;21.00;53.60;;;;;;5013863;28;20056;-72
2022/05/05 11:10:40;;;;;;;;;;;21.00;52.80;;;;;;5013882;28;20056;-73
2022/05/05 11:13:06;;;;;;;6.95;5.63;;;20.90;51.70;;;;;;5013880;28;20011;-72
2022/05/05 11:21:33;;;;;;;10.02;5.78;;;20.50;52.40;;;;;;5016907;28;20045;-74
2022/05/05 11:24:00;;;;;;;7.57;5.32;;;20.70;55.80;;;;;;5017324;28;20047;-73
2022/05/05 11:26:26;;;;;;;9.45;5.70;;;21.00;53.90;;;;;;5017193;28;20488;-73
2022/05/05 11:28:53;;;;;;;7.03;5.25;;;21.20;54.00;;;;;;5017056;28;20049;-72
2022/05/05 11:31:28;;;;;;;7.85;5.40;;;21.50;53.90;;;;;;5034344;28;20076;-72
2022/05/05 11:33:56;;;;;;;7.47;5.20;;;21.60;53.40;;;;;;5017030;28;20065;-72
2022/05/05 11:36:30;;;;;;;10.60;5.60;;;21.70;51.50;;;;;;5000355;28;20041;-72
2022/05/05 11:38:56;;;;;;;9.02;5.68;;;21.70;51.90;;;;;;5016762;28;20068;-72
2022/05/05 11:41:23;;;;;;;7.30;5.15;;;21.60;50.10;;;;;;5016377;28;20084;-73
2022/05/05 11:46:36;;;;;;;8.63;5.57;;;21.60;50.30;;;;;;5016569;28;20041;-73
2022/05/05 11:49:02;;;;;;;8.18;4.90;;;21.50;50.60;;;;;;5016508;28;20073;-72
2022/05/05 11:51:32;;;;;;;7.40;4.75;;;21.80;51.40;;;;;;5016276;28;20095;-73
2022/05/05 11:54:06;;;;;;;7.15;4.72;;;21.90;53.30;;;;;;5016727;28;20439;-72
2022/05/05 11:56:33;;;;;;;8.73;5.15;;;22.10;51.40;;;;;;5016125;28;20048;-73
2022/05/05 12:02:16;;;;;;;5.70;4.50;;;22.20;51.70;;;;;;5016429;28;20408;-72
2022/05/05 12:04:48;;;;;;;7.55;5.30;;;22.20;51.90;;;;;;5016301;28;20041;-72
2022/05/05 12:07:20;;;;;;;7.40;5.05;;;22.30;52.60;;;;;;5016091;28;20037;-74
2022/05/05 12:09:50;;;;;;;7.38;5.78;;;22.70;51.10;;;;;;5015832;28;20052;-73
2022/05/05 12:12:19;;;;;;;8.35;5.40;;;23.00;48.60;;;;;;5015962;28;20156;-73
2022/05/05 12:14:47;;;;;;;9.27;5.93;;;22.40;48.20;;;;;;5015969;28;20144;-72
2022/05/05 12:17:24;;;;;;;7.30;5.85;;;22.50;50.80;;;;;;5015863;28;20041;-72
2022/05/05 12:19:55;;;;;;;7.47;5.13;;;22.70;50.20;;;;;;5015602;28;20037;-73
2022/05/05 12:22:29;;;;;;;8.68;5.22;;;22.90;51.90;;;;;;5015827;28;20044;-73
2022/05/05 12:25:00;;;;;;;8.32;5.55;;;23.30;51.90;;;;;;5015979;28;20132;-72
2022/05/05 12:27:26;;;;;;;7.03;5.38;;;23.30;48.60;;;;;;5015200;28;20041;-73
2022/05/05 12:29:52;;;;;;;11.13;5.68;;;23.40;49.10;;;;;;5015340;28;20049;-73
2022/05/05 12:32:19;;;;;;;12.68;5.38;;;23.70;49.10;;;;;;5015693;28;20052;-72
2022/05/05 12:34:46;;;;;;;7.35;5.32;;;23.80;49.10;;;;;;5015645;28;20077;-72
2022/05/05 12:37:16;;;;;;;12.35;6.15;;;23.90;48.20;;;;;;5015513;28;20097;-72
2022/05/05 12:39:57;;;;;;;10.20;5.72;;;23.80;46.90;;;;;;5015332;28;20052;-72
2022/05/05 12:42:23;;;;;;;8.18;5.50;;;23.70;46.20;;;;;;5015477;28;20120;-72
2022/05/05 12:44:51;;;;;;;8.77;5.47;;;23.40;49.90;;;;;;5015571;28;20095;-73
2022/05/05 12:47:24;;;;;;;8.55;5.28;;;23.00;49.00;;;;;;5015399;28;20041;-72
2022/05/05 12:49:51;;;;;;;9.85;5.43;;;22.60;49.10;;;;;;5015122;28;20084;-72
2022/05/05 13:00:48;;;;;;;13.30;5.55;;;22.60;48.50;;;;;;5015117;28;20081;-73
2022/05/05 13:03:14;;;;;;;7.05;4.78;;;22.60;48.60;;;;;;5015329;28;20107;-74
2022/05/05 13:05:40;;;;;;;6.18;4.68;;;22.60;50.70;;;;;;5032833;28;20045;-73
2022/05/05 13:08:05;;;;;;;14.23;4.88;;;22.40;51.80;;;;;;5015291;28;20049;-73
2022/05/05 13:10:31;;;;;;;8.70;4.93;;;22.40;51.40;;;;;;5014965;28;20052;-73
2022/05/05 13:12:57;;;;;;;6.40;4.70;;;22.00;50.70;;;;;;5014867;28;20129;-73
2022/05/05 13:15:22;;;;;;;5.28;3.58;;;21.90;50.40;;;;;;5014800;28;20486;-74
2022/05/05 13:17:48;;;;;;;5.82;3.90;;;22.20;51.40;;;;;;5014887;28;20128;-73
2022/05/05 13:20:14;;;;;;;5.20;3.65;;;22.40;51.20;;;;;;5014774;28;20088;-73
2022/05/05 13:22:39;;;;;;;6.65;4.10;;;22.80;52.40;;;;;;5015065;28;20052;-73
2022/05/05 13:25:05;;;;;;;5.43;4.40;;;23.30;50.00;;;;;;5014834;28;20511;-72
2022/05/05 13:27:31;;;;;;;8.95;4.55;;;23.50;48.80;;;;;;5014951;28;20491;-72
2022/05/05 13:29:56;;;;;;;6.45;4.20;;;23.50;47.90;;;;;;5014548;28;20045;-72
2022/05/05 13:32:22;;;;;;;8.18;4.20;;;23.30;48.00;;;;;;4998241;28;20041;-72
2022/05/05 13:34:48;;;;;;;15.90;3.88;;;23.20;47.60;;;;;;5014707;28;20064;-72
2022/05/05 13:37:13;;;;;;;7.70;3.47;;;23.10;49.50;;;;;;5014764;28;20076;-72